This is the latest recevied weather packets stored in our database for station/object W4BOD. If no packets are shown the sender has not sent any weather packets the latest 10 day(s).
| Time | Temp. | Humidity | Pressure | Rain* | Wind** | Luminosity | Snow |
|---|---|---|---|---|---|---|---|
| 1777838846 | 20.56° C | 37% | 1018.6 hPa | 0 mm | - | 696 W/m² | - |
| 1777838542 | 21.11° C | 38% | 1018.6 hPa | 0 mm | - | 712 W/m² | - |
| 1777838239 | 20.56° C | 36% | 1018.8 hPa | 0 mm | - | 726 W/m² | - |
| 1777837936 | 20.56° C | 39% | 1019 hPa | 0 mm | - | 740 W/m² | - |
| 1777837634 | 20.56° C | 36% | 1018.9 hPa | 0 mm | - | 751 W/m² | - |
| 1777837329 | 20.56° C | 38% | 1019.2 hPa | 0 mm | - | 766 W/m² | - |
| 1777837026 | 20.56° C | 42% | 1019.2 hPa | 0 mm | - | 776 W/m² | - |
| 1777836722 | 20° C | 37% | 1019.3 hPa | 0 mm | - | 763 W/m² | - |
| 1777836417 | 20° C | 41% | 1019.3 hPa | 0 mm | - | 796 W/m² | - |
| 1777836113 | 19.44° C | 42% | 1019.3 hPa | 0 mm | - | 805 W/m² | - |
| 1777835810 | 19.44° C | 42% | 1019.6 hPa | 0 mm | - | 815 W/m² | - |
| 1777835507 | 19.44° C | 42% | 1019.4 hPa | 0 mm | - | 824 W/m² | - |
| 1777835204 | 18.89° C | 41% | 1019.7 hPa | 0 mm | - | 833 W/m² | - |
| 1777834901 | 18.89° C | 41% | 1019.7 hPa | 0 mm | - | 842 W/m² | - |
| 1777834597 | 18.33° C | 38% | 1019.9 hPa | 0 mm | - | 852 W/m² | - |
| 1777834292 | 18.89° C | 38% | 1019.8 hPa | 0 mm | - | 859 W/m² | - |
| 1777833988 | 18.89° C | 38% | 1019.9 hPa | 0 mm | - | 868 W/m² | - |
| 1777833685 | 18.89° C | 40% | 1020 hPa | 0 mm | - | 876 W/m² | - |
| 1777833381 | 18.33° C | 40% | 1020.1 hPa | 0 mm | - | 882 W/m² | - |
| 1777833078 | 18.89° C | 43% | 1020.2 hPa | 0 mm | - | 891 W/m² | - |
| 1777832777 | 17.78° C | 40% | 1020.3 hPa | 0 mm | - | 894 W/m² | - |
| 1777832475 | 18.33° C | 40% | 1020.3 hPa | 0 mm | - | 902 W/m² | - |
| 1777832171 | 18.89° C | 39% | 1020.4 hPa | 0 mm | - | 908 W/m² | - |
| 1777831868 | 18.33° C | 40% | 1020.4 hPa | 0 mm | - | 911 W/m² | - |
| 1777831565 | 17.22° C | 41% | 1020.4 hPa | 0 mm | - | 915 W/m² | - |
* Rain latest hour (hover to see other rain measurements)
** Current wind speed in m/s (hover to see current wind gust speed)